Mount Signal, California
Current Conditions -  °F | °C
As of 11:53 PM on Saturday 20 Dec 2014 (Local Time) from KIPL Reporting Station
Clear Clear  
Wind Chill: 46°   Ceiling: Unl
Heat Index: 49°   Visibility: 10mi
Dew Point: 43°   Wind: 7mph
Humidity: 80%   Direction: 260°W
Pressure: 30.12"   Gusts: NA
Location:  32.6882°N, 115.548°W
Report Text: KIPL 210753Z AUTO 26006KT 10SM CLR 09/06 A3012 RMK AO2 SLP198 T00940061 401890056
Loading
Personal Weather Stations






























Interactive Weather Map New forecast layout! Learn more

10-Day Weather Forecast

Advertisements
Track Severe Weather on mobile